sensor_id;sensor_type;location;lat;lon;timestamp;P1;durP1;ratioP1;P2;durP2;ratioP2
79616;SDS011;69097;52.132;5.422;2024-02-26T00:00:29;5.55;;;2.67;;
79616;SDS011;69097;52.132;5.422;2024-02-26T00:02:56;9.48;;;3.17;;
79616;SDS011;69097;52.132;5.422;2024-02-26T00:05:23;5.90;;;2.90;;
79616;SDS011;69097;52.132;5.422;2024-02-26T00:07:49;6.25;;;2.97;;
79616;SDS011;69097;52.132;5.422;2024-02-26T00:10:16;6.97;;;2.95;;
79616;SDS011;69097;52.132;5.422;2024-02-26T00:12:42;6.40;;;3.00;;
79616;SDS011;69097;52.132;5.422;2024-02-26T00:15:09;5.75;;;2.53;;
79616;SDS011;69097;52.132;5.422;2024-02-26T00:17:36;6.38;;;3.17;;
79616;SDS011;69097;52.132;5.422;2024-02-26T00:20:04;6.25;;;2.85;;
79616;SDS011;69097;52.132;5.422;2024-02-26T00:22:34;5.90;;;2.80;;
79616;SDS011;69097;52.132;5.422;2024-02-26T00:25:02;6.70;;;2.78;;
79616;SDS011;69097;52.132;5.422;2024-02-26T00:27:28;6.20;;;3.03;;
79616;SDS011;69097;52.132;5.422;2024-02-26T00:29:55;5.78;;;2.50;;
79616;SDS011;69097;52.132;5.422;2024-02-26T00:32:21;5.57;;;2.80;;
79616;SDS011;69097;52.132;5.422;2024-02-26T00:34:48;6.72;;;3.20;;
79616;SDS011;69097;52.132;5.422;2024-02-26T00:37:14;5.60;;;2.92;;
79616;SDS011;69097;52.132;5.422;2024-02-26T00:39:41;6.10;;;2.90;;
79616;SDS011;69097;52.132;5.422;2024-02-26T00:42:07;5.88;;;2.85;;
79616;SDS011;69097;52.132;5.422;2024-02-26T00:44:34;6.00;;;2.88;;
79616;SDS011;69097;52.132;5.422;2024-02-26T00:47:00;6.53;;;2.88;;
79616;SDS011;69097;52.132;5.422;2024-02-26T00:49:27;5.65;;;3.00;;
79616;SDS011;69097;52.132;5.422;2024-02-26T00:51:53;6.32;;;3.20;;
79616;SDS011;69097;52.132;5.422;2024-02-26T00:54:20;5.50;;;2.90;;
79616;SDS011;69097;52.132;5.422;2024-02-26T00:56:46;7.32;;;3.33;;
79616;SDS011;69097;52.132;5.422;2024-02-26T00:59:13;7.82;;;3.30;;
79616;SDS011;69097;52.132;5.422;2024-02-26T01:01:39;6.93;;;2.85;;
79616;SDS011;69097;52.132;5.422;2024-02-26T01:04:06;7.15;;;3.38;;
79616;SDS011;69097;52.132;5.422;2024-02-26T01:06:32;6.90;;;3.15;;
79616;SDS011;69097;52.132;5.422;2024-02-26T01:08:59;6.13;;;2.90;;
79616;SDS011;69097;52.132;5.422;2024-02-26T01:11:26;8.15;;;4.95;;
79616;SDS011;69097;52.132;5.422;2024-02-26T01:13:52;5.90;;;2.95;;
79616;SDS011;69097;52.132;5.422;2024-02-26T01:16:23;7.78;;;3.03;;
79616;SDS011;69097;52.132;5.422;2024-02-26T01:18:49;7.13;;;3.35;;
79616;SDS011;69097;52.132;5.422;2024-02-26T01:21:16;7.78;;;3.20;;
79616;SDS011;69097;52.132;5.422;2024-02-26T01:23:43;9.13;;;3.22;;
79616;SDS011;69097;52.132;5.422;2024-02-26T01:26:09;7.18;;;3.30;;
79616;SDS011;69097;52.132;5.422;2024-02-26T01:28:37;6.50;;;3.67;;
79616;SDS011;69097;52.132;5.422;2024-02-26T01:31:03;8.20;;;3.05;;
79616;SDS011;69097;52.132;5.422;2024-02-26T01:33:32;7.55;;;3.33;;
79616;SDS011;69097;52.132;5.422;2024-02-26T01:35:59;8.40;;;3.10;;
79616;SDS011;69097;52.132;5.422;2024-02-26T01:38:27;7.18;;;3.00;;
79616;SDS011;69097;52.132;5.422;2024-02-26T01:40:53;7.13;;;3.08;;
79616;SDS011;69097;52.132;5.422;2024-02-26T01:43:20;7.82;;;4.43;;
79616;SDS011;69097;52.132;5.422;2024-02-26T01:45:46;6.43;;;2.80;;
79616;SDS011;69097;52.132;5.422;2024-02-26T01:48:13;7.55;;;3.55;;
79616;SDS011;69097;52.132;5.422;2024-02-26T01:50:40;7.90;;;3.10;;
79616;SDS011;69097;52.132;5.422;2024-02-26T01:53:07;7.05;;;3.50;;
79616;SDS011;69097;52.132;5.422;2024-02-26T01:55:34;6.30;;;3.10;;
79616;SDS011;69097;52.132;5.422;2024-02-26T01:58:01;6.88;;;3.63;;
79616;SDS011;69097;52.132;5.422;2024-02-26T02:00:28;6.63;;;3.30;;
79616;SDS011;69097;52.132;5.422;2024-02-26T02:02:55;8.20;;;3.22;;
79616;SDS011;69097;52.132;5.422;2024-02-26T02:05:22;5.97;;;3.22;;
79616;SDS011;69097;52.132;5.422;2024-02-26T02:07:49;6.00;;;2.90;;
79616;SDS011;69097;52.132;5.422;2024-02-26T02:10:17;8.52;;;3.88;;
79616;SDS011;69097;52.132;5.422;2024-02-26T02:12:51;8.50;;;3.67;;
79616;SDS011;69097;52.132;5.422;2024-02-26T02:15:18;6.38;;;3.92;;
79616;SDS011;69097;52.132;5.422;2024-02-26T02:17:45;7.72;;;3.58;;
79616;SDS011;69097;52.132;5.422;2024-02-26T02:20:16;7.75;;;3.88;;
79616;SDS011;69097;52.132;5.422;2024-02-26T02:22:46;7.85;;;3.22;;
79616;SDS011;69097;52.132;5.422;2024-02-26T02:25:13;7.78;;;3.83;;
79616;SDS011;69097;52.132;5.422;2024-02-26T02:27:40;7.57;;;3.53;;
79616;SDS011;69097;52.132;5.422;2024-02-26T02:30:07;7.68;;;3.33;;
79616;SDS011;69097;52.132;5.422;2024-02-26T02:32:36;8.05;;;3.28;;
79616;SDS011;69097;52.132;5.422;2024-02-26T02:35:06;6.38;;;3.20;;
79616;SDS011;69097;52.132;5.422;2024-02-26T02:37:32;6.05;;;3.05;;
79616;SDS011;69097;52.132;5.422;2024-02-26T02:39:59;7.72;;;3.58;;
79616;SDS011;69097;52.132;5.422;2024-02-26T02:42:26;6.90;;;3.60;;
79616;SDS011;69097;52.132;5.422;2024-02-26T02:44:52;6.30;;;3.15;;
79616;SDS011;69097;52.132;5.422;2024-02-26T02:47:19;6.38;;;3.40;;
79616;SDS011;69097;52.132;5.422;2024-02-26T02:49:45;7.40;;;3.60;;
79616;SDS011;69097;52.132;5.422;2024-02-26T02:52:12;6.57;;;3.30;;
79616;SDS011;69097;52.132;5.422;2024-02-26T02:54:38;7.68;;;3.80;;
79616;SDS011;69097;52.132;5.422;2024-02-26T02:57:08;7.10;;;3.10;;
79616;SDS011;69097;52.132;5.422;2024-02-26T02:59:35;8.07;;;3.72;;
79616;SDS011;69097;52.132;5.422;2024-02-26T03:02:02;6.38;;;3.28;;
79616;SDS011;69097;52.132;5.422;2024-02-26T03:04:28;8.60;;;3.17;;
79616;SDS011;69097;52.132;5.422;2024-02-26T03:06:55;7.07;;;3.50;;
79616;SDS011;69097;52.132;5.422;2024-02-26T03:09:22;8.32;;;3.47;;
79616;SDS011;69097;52.132;5.422;2024-02-26T03:11:49;6.53;;;3.22;;
79616;SDS011;69097;52.132;5.422;2024-02-26T03:14:16;9.10;;;3.90;;
79616;SDS011;69097;52.132;5.422;2024-02-26T03:16:42;7.68;;;3.33;;
79616;SDS011;69097;52.132;5.422;2024-02-26T03:19:09;8.05;;;3.60;;
79616;SDS011;69097;52.132;5.422;2024-02-26T03:21:35;7.82;;;3.80;;
79616;SDS011;69097;52.132;5.422;2024-02-26T03:24:02;8.68;;;3.88;;
79616;SDS011;69097;52.132;5.422;2024-02-26T03:26:28;8.65;;;5.32;;
79616;SDS011;69097;52.132;5.422;2024-02-26T03:28:57;7.63;;;3.70;;
79616;SDS011;69097;52.132;5.422;2024-02-26T03:31:24;9.60;;;4.43;;
79616;SDS011;69097;52.132;5.422;2024-02-26T03:33:50;9.93;;;4.30;;
79616;SDS011;69097;52.132;5.422;2024-02-26T03:36:17;8.15;;;4.10;;
79616;SDS011;69097;52.132;5.422;2024-02-26T03:38:44;8.52;;;4.18;;
79616;SDS011;69097;52.132;5.422;2024-02-26T03:41:10;10.25;;;4.75;;
79616;SDS011;69097;52.132;5.422;2024-02-26T03:43:37;8.30;;;3.95;;
79616;SDS011;69097;52.132;5.422;2024-02-26T03:46:03;11.60;;;4.43;;
79616;SDS011;69097;52.132;5.422;2024-02-26T03:48:33;8.82;;;4.47;;
79616;SDS011;69097;52.132;5.422;2024-02-26T03:51:00;8.77;;;4.20;;
79616;SDS011;69097;52.132;5.422;2024-02-26T03:53:26;8.02;;;3.65;;
79616;SDS011;69097;52.132;5.422;2024-02-26T03:55:54;8.82;;;4.50;;
79616;SDS011;69097;52.132;5.422;2024-02-26T03:58:21;8.98;;;4.78;;
79616;SDS011;69097;52.132;5.422;2024-02-26T04:00:48;10.02;;;4.38;;
79616;SDS011;69097;52.132;5.422;2024-02-26T04:03:14;10.32;;;4.22;;
79616;SDS011;69097;52.132;5.422;2024-02-26T04:05:41;9.73;;;4.68;;
79616;SDS011;69097;52.132;5.422;2024-02-26T04:08:08;10.10;;;4.40;;
79616;SDS011;69097;52.132;5.422;2024-02-26T04:10:35;9.30;;;4.05;;
79616;SDS011;69097;52.132;5.422;2024-02-26T04:13:01;8.93;;;4.38;;
79616;SDS011;69097;52.132;5.422;2024-02-26T04:15:28;8.70;;;4.30;;
79616;SDS011;69097;52.132;5.422;2024-02-26T04:17:55;8.13;;;3.90;;
79616;SDS011;69097;52.132;5.422;2024-02-26T04:20:22;10.20;;;5.65;;
79616;SDS011;69097;52.132;5.422;2024-02-26T04:22:48;8.32;;;3.72;;
79616;SDS011;69097;52.132;5.422;2024-02-26T04:25:15;8.45;;;4.32;;
79616;SDS011;69097;52.132;5.422;2024-02-26T04:27:41;7.78;;;3.65;;
79616;SDS011;69097;52.132;5.422;2024-02-26T04:30:08;8.20;;;3.90;;
79616;SDS011;69097;52.132;5.422;2024-02-26T04:32:35;9.55;;;4.10;;
79616;SDS011;69097;52.132;5.422;2024-02-26T04:35:02;10.25;;;4.47;;
79616;SDS011;69097;52.132;5.422;2024-02-26T04:37:29;10.23;;;5.38;;
79616;SDS011;69097;52.132;5.422;2024-02-26T04:39:58;8.55;;;3.75;;
79616;SDS011;69097;52.132;5.422;2024-02-26T04:42:25;9.02;;;4.43;;
79616;SDS011;69097;52.132;5.422;2024-02-26T04:44:52;9.02;;;3.67;;
79616;SDS011;69097;52.132;5.422;2024-02-26T04:47:18;8.95;;;3.45;;
79616;SDS011;69097;52.132;5.422;2024-02-26T04:49:45;9.23;;;5.68;;
79616;SDS011;69097;52.132;5.422;2024-02-26T04:52:11;10.70;;;4.60;;
79616;SDS011;69097;52.132;5.422;2024-02-26T04:54:38;8.95;;;4.13;;
79616;SDS011;69097;52.132;5.422;2024-02-26T04:57:04;8.25;;;4.18;;
79616;SDS011;69097;52.132;5.422;2024-02-26T04:59:31;9.88;;;4.28;;
79616;SDS011;69097;52.132;5.422;2024-02-26T05:01:57;8.52;;;3.80;;
79616;SDS011;69097;52.132;5.422;2024-02-26T05:04:24;8.32;;;3.60;;
79616;SDS011;69097;52.132;5.422;2024-02-26T05:06:50;8.48;;;4.30;;
79616;SDS011;69097;52.132;5.422;2024-02-26T05:09:17;9.05;;;4.38;;
79616;SDS011;69097;52.132;5.422;2024-02-26T05:11:43;9.73;;;4.20;;
79616;SDS011;69097;52.132;5.422;2024-02-26T05:14:10;8.43;;;4.22;;
79616;SDS011;69097;52.132;5.422;2024-02-26T05:16:37;7.90;;;3.72;;
79616;SDS011;69097;52.132;5.422;2024-02-26T05:19:04;8.20;;;3.67;;
79616;SDS011;69097;52.132;5.422;2024-02-26T05:21:32;8.75;;;3.55;;
79616;SDS011;69097;52.132;5.422;2024-02-26T05:23:58;9.23;;;4.32;;
79616;SDS011;69097;52.132;5.422;2024-02-26T05:26:25;10.50;;;4.75;;
79616;SDS011;69097;52.132;5.422;2024-02-26T05:28:51;9.15;;;4.07;;
79616;SDS011;69097;52.132;5.422;2024-02-26T05:31:17;9.25;;;4.05;;
79616;SDS011;69097;52.132;5.422;2024-02-26T05:33:45;9.45;;;4.05;;
79616;SDS011;69097;52.132;5.422;2024-02-26T05:36:17;8.23;;;4.07;;
79616;SDS011;69097;52.132;5.422;2024-02-26T05:38:44;9.00;;;4.65;;
79616;SDS011;69097;52.132;5.422;2024-02-26T05:41:12;12.00;;;5.60;;
79616;SDS011;69097;52.132;5.422;2024-02-26T05:43:40;10.45;;;4.85;;
79616;SDS011;69097;52.132;5.422;2024-02-26T05:46:06;10.43;;;5.38;;
79616;SDS011;69097;52.132;5.422;2024-02-26T05:48:33;11.15;;;5.20;;
79616;SDS011;69097;52.132;5.422;2024-02-26T05:50:59;11.00;;;5.43;;
79616;SDS011;69097;52.132;5.422;2024-02-26T05:53:26;10.65;;;4.97;;
79616;SDS011;69097;52.132;5.422;2024-02-26T05:55:52;8.88;;;4.35;;
79616;SDS011;69097;52.132;5.422;2024-02-26T05:58:18;10.60;;;4.55;;
79616;SDS011;69097;52.132;5.422;2024-02-26T06:00:45;9.77;;;4.57;;
79616;SDS011;69097;52.132;5.422;2024-02-26T06:03:12;9.68;;;4.90;;
79616;SDS011;69097;52.132;5.422;2024-02-26T06:05:38;10.60;;;4.72;;
79616;SDS011;69097;52.132;5.422;2024-02-26T06:08:04;11.65;;;4.85;;
79616;SDS011;69097;52.132;5.422;2024-02-26T06:10:33;12.55;;;5.50;;
79616;SDS011;69097;52.132;5.422;2024-02-26T06:12:59;11.43;;;5.28;;
79616;SDS011;69097;52.132;5.422;2024-02-26T06:15:26;11.80;;;5.22;;
79616;SDS011;69097;52.132;5.422;2024-02-26T06:17:52;10.20;;;4.68;;
79616;SDS011;69097;52.132;5.422;2024-02-26T06:20:19;13.80;;;6.25;;
79616;SDS011;69097;52.132;5.422;2024-02-26T06:22:45;10.48;;;4.72;;
79616;SDS011;69097;52.132;5.422;2024-02-26T06:25:12;13.27;;;5.10;;
79616;SDS011;69097;52.132;5.422;2024-02-26T06:27:38;12.05;;;5.25;;
79616;SDS011;69097;52.132;5.422;2024-02-26T06:30:05;11.02;;;5.03;;
79616;SDS011;69097;52.132;5.422;2024-02-26T06:32:32;11.68;;;5.40;;
79616;SDS011;69097;52.132;5.422;2024-02-26T06:34:58;12.90;;;5.88;;
79616;SDS011;69097;52.132;5.422;2024-02-26T06:37:25;11.10;;;5.40;;
79616;SDS011;69097;52.132;5.422;2024-02-26T06:39:52;12.18;;;5.40;;
79616;SDS011;69097;52.132;5.422;2024-02-26T06:42:18;13.38;;;5.53;;
79616;SDS011;69097;52.132;5.422;2024-02-26T06:44:45;11.95;;;5.90;;
79616;SDS011;69097;52.132;5.422;2024-02-26T06:47:11;12.32;;;4.95;;
79616;SDS011;69097;52.132;5.422;2024-02-26T06:49:38;14.40;;;5.57;;
79616;SDS011;69097;52.132;5.422;2024-02-26T06:52:05;13.30;;;5.95;;
79616;SDS011;69097;52.132;5.422;2024-02-26T06:54:32;11.52;;;5.55;;
79616;SDS011;69097;52.132;5.422;2024-02-26T06:56:59;14.88;;;6.93;;
79616;SDS011;69097;52.132;5.422;2024-02-26T06:59:26;13.07;;;5.75;;
79616;SDS011;69097;52.132;5.422;2024-02-26T07:01:53;15.02;;;6.22;;
79616;SDS011;69097;52.132;5.422;2024-02-26T07:04:20;13.20;;;6.22;;
79616;SDS011;69097;52.132;5.422;2024-02-26T07:06:46;12.45;;;5.55;;
79616;SDS011;69097;52.132;5.422;2024-02-26T07:09:14;15.98;;;6.60;;
79616;SDS011;69097;52.132;5.422;2024-02-26T07:11:40;14.82;;;6.28;;
79616;SDS011;69097;52.132;5.422;2024-02-26T07:14:08;18.25;;;7.15;;
79616;SDS011;69097;52.132;5.422;2024-02-26T07:19:02;13.93;;;6.05;;
79616;SDS011;69097;52.132;5.422;2024-02-26T07:21:29;17.00;;;7.07;;
79616;SDS011;69097;52.132;5.422;2024-02-26T07:23:56;16.25;;;6.57;;
79616;SDS011;69097;52.132;5.422;2024-02-26T07:26:23;17.33;;;6.95;;
79616;SDS011;69097;52.132;5.422;2024-02-26T07:28:52;17.73;;;7.50;;
79616;SDS011;69097;52.132;5.422;2024-02-26T07:31:21;17.27;;;7.95;;
79616;SDS011;69097;52.132;5.422;2024-02-26T07:33:48;15.73;;;6.85;;
79616;SDS011;69097;52.132;5.422;2024-02-26T07:36:14;19.92;;;8.10;;
79616;SDS011;69097;52.132;5.422;2024-02-26T07:38:40;20.20;;;7.82;;
79616;SDS011;69097;52.132;5.422;2024-02-26T07:41:09;17.17;;;8.02;;
79616;SDS011;69097;52.132;5.422;2024-02-26T07:43:36;19.00;;;7.80;;
79616;SDS011;69097;52.132;5.422;2024-02-26T07:46:03;15.75;;;7.20;;
79616;SDS011;69097;52.132;5.422;2024-02-26T07:48:29;20.25;;;8.63;;
79616;SDS011;69097;52.132;5.422;2024-02-26T07:50:56;21.08;;;10.23;;
79616;SDS011;69097;52.132;5.422;2024-02-26T07:53:25;20.52;;;7.05;;
79616;SDS011;69097;52.132;5.422;2024-02-26T07:55:52;19.60;;;7.57;;
79616;SDS011;69097;52.132;5.422;2024-02-26T07:58:18;17.63;;;7.50;;
79616;SDS011;69097;52.132;5.422;2024-02-26T08:00:45;20.58;;;8.30;;
79616;SDS011;69097;52.132;5.422;2024-02-26T08:03:12;17.98;;;7.88;;
79616;SDS011;69097;52.132;5.422;2024-02-26T08:05:42;18.58;;;8.27;;
79616;SDS011;69097;52.132;5.422;2024-02-26T08:08:09;18.48;;;8.30;;
79616;SDS011;69097;52.132;5.422;2024-02-26T08:10:36;19.83;;;8.27;;
79616;SDS011;69097;52.132;5.422;2024-02-26T08:13:02;18.63;;;7.85;;
79616;SDS011;69097;52.132;5.422;2024-02-26T08:15:32;19.90;;;8.00;;
79616;SDS011;69097;52.132;5.422;2024-02-26T08:18:00;18.27;;;7.82;;
79616;SDS011;69097;52.132;5.422;2024-02-26T08:20:30;17.27;;;7.55;;
79616;SDS011;69097;52.132;5.422;2024-02-26T08:22:57;17.38;;;8.18;;
79616;SDS011;69097;52.132;5.422;2024-02-26T08:25:24;18.27;;;9.75;;
79616;SDS011;69097;52.132;5.422;2024-02-26T08:27:50;16.02;;;8.18;;
79616;SDS011;69097;52.132;5.422;2024-02-26T08:30:17;14.93;;;7.45;;
79616;SDS011;69097;52.132;5.422;2024-02-26T08:32:44;16.27;;;7.43;;
79616;SDS011;69097;52.132;5.422;2024-02-26T08:35:16;17.33;;;7.28;;
79616;SDS011;69097;52.132;5.422;2024-02-26T08:37:46;14.98;;;6.82;;
79616;SDS011;69097;52.132;5.422;2024-02-26T08:40:13;13.32;;;6.18;;
79616;SDS011;69097;52.132;5.422;2024-02-26T08:42:40;13.38;;;6.15;;
79616;SDS011;69097;52.132;5.422;2024-02-26T08:45:07;14.27;;;6.60;;
79616;SDS011;69097;52.132;5.422;2024-02-26T08:47:34;13.73;;;6.25;;
79616;SDS011;69097;52.132;5.422;2024-02-26T08:50:01;13.73;;;6.85;;
79616;SDS011;69097;52.132;5.422;2024-02-26T08:52:28;15.25;;;5.82;;
79616;SDS011;69097;52.132;5.422;2024-02-26T08:54:55;14.88;;;5.28;;
79616;SDS011;69097;52.132;5.422;2024-02-26T08:57:21;9.63;;;5.10;;
79616;SDS011;69097;52.132;5.422;2024-02-26T08:59:48;10.90;;;5.70;;
79616;SDS011;69097;52.132;5.422;2024-02-26T09:02:15;11.55;;;4.97;;
79616;SDS011;69097;52.132;5.422;2024-02-26T09:04:41;13.80;;;5.97;;
79616;SDS011;69097;52.132;5.422;2024-02-26T09:07:08;12.02;;;6.53;;
79616;SDS011;69097;52.132;5.422;2024-02-26T09:09:35;12.65;;;5.43;;
79616;SDS011;69097;52.132;5.422;2024-02-26T09:12:02;10.55;;;4.75;;
79616;SDS011;69097;52.132;5.422;2024-02-26T09:14:29;11.10;;;5.40;;
79616;SDS011;69097;52.132;5.422;2024-02-26T09:16:56;11.55;;;5.63;;
79616;SDS011;69097;52.132;5.422;2024-02-26T09:19:23;9.45;;;4.40;;
79616;SDS011;69097;52.132;5.422;2024-02-26T09:21:50;11.65;;;4.95;;
79616;SDS011;69097;52.132;5.422;2024-02-26T09:24:16;11.20;;;4.50;;
79616;SDS011;69097;52.132;5.422;2024-02-26T09:26:43;11.80;;;4.70;;
79616;SDS011;69097;52.132;5.422;2024-02-26T09:29:09;11.38;;;4.50;;
79616;SDS011;69097;52.132;5.422;2024-02-26T09:31:37;11.43;;;4.78;;
79616;SDS011;69097;52.132;5.422;2024-02-26T09:36:31;8.38;;;4.47;;
79616;SDS011;69097;52.132;5.422;2024-02-26T09:38:57;9.90;;;4.28;;
79616;SDS011;69097;52.132;5.422;2024-02-26T09:41:30;8.93;;;3.90;;
79616;SDS011;69097;52.132;5.422;2024-02-26T09:43:59;9.57;;;4.15;;
79616;SDS011;69097;52.132;5.422;2024-02-26T09:46:29;12.02;;;4.43;;
79616;SDS011;69097;52.132;5.422;2024-02-26T09:51:23;9.55;;;3.80;;
79616;SDS011;69097;52.132;5.422;2024-02-26T09:53:55;9.18;;;4.47;;
79616;SDS011;69097;52.132;5.422;2024-02-26T09:56:25;9.00;;;3.25;;
79616;SDS011;69097;52.132;5.422;2024-02-26T09:58:52;13.30;;;4.13;;
79616;SDS011;69097;52.132;5.422;2024-02-26T10:01:22;8.65;;;3.47;;
79616;SDS011;69097;52.132;5.422;2024-02-26T10:03:52;10.65;;;4.05;;
79616;SDS011;69097;52.132;5.422;2024-02-26T10:06:23;8.80;;;3.85;;
79616;SDS011;69097;52.132;5.422;2024-02-26T10:08:52;9.07;;;4.28;;
79616;SDS011;69097;52.132;5.422;2024-02-26T10:11:19;9.15;;;4.40;;
79616;SDS011;69097;52.132;5.422;2024-02-26T10:13:46;8.80;;;4.22;;
79616;SDS011;69097;52.132;5.422;2024-02-26T10:16:13;9.38;;;3.50;;
79616;SDS011;69097;52.132;5.422;2024-02-26T10:18:46;9.32;;;4.30;;
79616;SDS011;69097;52.132;5.422;2024-02-26T10:21:25;9.00;;;3.75;;
79616;SDS011;69097;52.132;5.422;2024-02-26T10:23:52;8.32;;;3.55;;
79616;SDS011;69097;52.132;5.422;2024-02-26T10:26:19;10.43;;;4.00;;
79616;SDS011;69097;52.132;5.422;2024-02-26T10:28:46;8.73;;;3.72;;
79616;SDS011;69097;52.132;5.422;2024-02-26T10:31:18;7.60;;;3.30;;
79616;SDS011;69097;52.132;5.422;2024-02-26T10:33:45;9.23;;;3.63;;
79616;SDS011;69097;52.132;5.422;2024-02-26T10:36:11;9.45;;;3.97;;
79616;SDS011;69097;52.132;5.422;2024-02-26T10:38:38;9.13;;;3.63;;
79616;SDS011;69097;52.132;5.422;2024-02-26T10:41:08;8.02;;;3.78;;
79616;SDS011;69097;52.132;5.422;2024-02-26T10:43:41;8.75;;;3.33;;
79616;SDS011;69097;52.132;5.422;2024-02-26T10:46:08;7.78;;;3.60;;
79616;SDS011;69097;52.132;5.422;2024-02-26T10:48:36;9.23;;;3.55;;
79616;SDS011;69097;52.132;5.422;2024-02-26T10:51:03;8.25;;;3.58;;
79616;SDS011;69097;52.132;5.422;2024-02-26T10:56:03;8.57;;;3.70;;
79616;SDS011;69097;52.132;5.422;2024-02-26T10:58:31;7.88;;;3.22;;
79616;SDS011;69097;52.132;5.422;2024-02-26T11:00:58;8.18;;;3.45;;
79616;SDS011;69097;52.132;5.422;2024-02-26T11:03:26;8.05;;;3.97;;
79616;SDS011;69097;52.132;5.422;2024-02-26T11:05:54;7.75;;;3.42;;
79616;SDS011;69097;52.132;5.422;2024-02-26T11:08:24;8.60;;;3.00;;
79616;SDS011;69097;52.132;5.422;2024-02-26T11:10:52;8.43;;;3.72;;
79616;SDS011;69097;52.132;5.422;2024-02-26T11:13:21;7.35;;;3.75;;
79616;SDS011;69097;52.132;5.422;2024-02-26T11:15:49;10.52;;;3.53;;
79616;SDS011;69097;52.132;5.422;2024-02-26T11:18:17;9.07;;;3.97;;
79616;SDS011;69097;52.132;5.422;2024-02-26T11:20:45;8.90;;;3.65;;
79616;SDS011;69097;52.132;5.422;2024-02-26T11:23:14;8.40;;;3.20;;
79616;SDS011;69097;52.132;5.422;2024-02-26T11:25:41;8.43;;;3.55;;
79616;SDS011;69097;52.132;5.422;2024-02-26T11:28:12;7.88;;;3.50;;
79616;SDS011;69097;52.132;5.422;2024-02-26T11:30:43;8.13;;;3.60;;
79616;SDS011;69097;52.132;5.422;2024-02-26T11:33:12;8.85;;;4.80;;
79616;SDS011;69097;52.132;5.422;2024-02-26T11:35:40;7.80;;;4.07;;
79616;SDS011;69097;52.132;5.422;2024-02-26T11:38:07;7.40;;;3.70;;
79616;SDS011;69097;52.132;5.422;2024-02-26T11:40:38;8.05;;;3.42;;
79616;SDS011;69097;52.132;5.422;2024-02-26T11:45:47;9.88;;;5.22;;
79616;SDS011;69097;52.132;5.422;2024-02-26T11:48:16;7.47;;;3.33;;
79616;SDS011;69097;52.132;5.422;2024-02-26T11:50:48;8.73;;;3.63;;
79616;SDS011;69097;52.132;5.422;2024-02-26T11:53:19;8.43;;;3.63;;
79616;SDS011;69097;52.132;5.422;2024-02-26T11:58:41;7.22;;;3.25;;
79616;SDS011;69097;52.132;5.422;2024-02-26T12:04:21;9.70;;;3.95;;
79616;SDS011;69097;52.132;5.422;2024-02-26T12:06:52;9.60;;;3.92;;
79616;SDS011;69097;52.132;5.422;2024-02-26T12:09:36;8.30;;;3.65;;
79616;SDS011;69097;52.132;5.422;2024-02-26T12:12:08;9.05;;;3.72;;
79616;SDS011;69097;52.132;5.422;2024-02-26T12:14:55;8.00;;;3.55;;
79616;SDS011;69097;52.132;5.422;2024-02-26T12:17:23;7.28;;;3.08;;
79616;SDS011;69097;52.132;5.422;2024-02-26T12:19:52;7.28;;;3.42;;
79616;SDS011;69097;52.132;5.422;2024-02-26T12:22:20;6.78;;;3.35;;
79616;SDS011;69097;52.132;5.422;2024-02-26T12:24:47;8.25;;;3.65;;
79616;SDS011;69097;52.132;5.422;2024-02-26T12:27:13;8.40;;;3.80;;
79616;SDS011;69097;52.132;5.422;2024-02-26T12:29:41;7.38;;;3.53;;
79616;SDS011;69097;52.132;5.422;2024-02-26T12:32:08;7.88;;;3.25;;
79616;SDS011;69097;52.132;5.422;2024-02-26T12:34:34;9.98;;;3.45;;
79616;SDS011;69097;52.132;5.422;2024-02-26T12:37:01;8.25;;;4.07;;
79616;SDS011;69097;52.132;5.422;2024-02-26T12:39:28;8.35;;;4.07;;
79616;SDS011;69097;52.132;5.422;2024-02-26T12:41:57;11.32;;;4.03;;
79616;SDS011;69097;52.132;5.422;2024-02-26T12:44:26;10.25;;;3.50;;
79616;SDS011;69097;52.132;5.422;2024-02-26T12:47:00;11.20;;;3.83;;
79616;SDS011;69097;52.132;5.422;2024-02-26T12:49:29;8.95;;;3.50;;
79616;SDS011;69097;52.132;5.422;2024-02-26T12:51:56;7.40;;;3.08;;
79616;SDS011;69097;52.132;5.422;2024-02-26T12:54:30;9.43;;;3.75;;
79616;SDS011;69097;52.132;5.422;2024-02-26T12:56:59;7.07;;;3.17;;
79616;SDS011;69097;52.132;5.422;2024-02-26T12:59:28;7.72;;;3.42;;
79616;SDS011;69097;52.132;5.422;2024-02-26T13:01:56;9.15;;;3.40;;
79616;SDS011;69097;52.132;5.422;2024-02-26T13:04:24;7.55;;;3.63;;
79616;SDS011;69097;52.132;5.422;2024-02-26T13:06:51;8.55;;;3.50;;
79616;SDS011;69097;52.132;5.422;2024-02-26T13:09:18;8.45;;;3.47;;
79616;SDS011;69097;52.132;5.422;2024-02-26T13:11:45;9.65;;;3.40;;
79616;SDS011;69097;52.132;5.422;2024-02-26T13:14:20;9.18;;;3.72;;
79616;SDS011;69097;52.132;5.422;2024-02-26T13:16:56;8.57;;;3.80;;
79616;SDS011;69097;52.132;5.422;2024-02-26T13:19:24;8.68;;;3.85;;
79616;SDS011;69097;52.132;5.422;2024-02-26T13:21:50;9.77;;;4.32;;
79616;SDS011;69097;52.132;5.422;2024-02-26T13:24:19;8.40;;;3.60;;
79616;SDS011;69097;52.132;5.422;2024-02-26T13:26:46;8.10;;;3.90;;
79616;SDS011;69097;52.132;5.422;2024-02-26T13:29:16;7.28;;;3.70;;
79616;SDS011;69097;52.132;5.422;2024-02-26T13:31:46;9.32;;;4.10;;
79616;SDS011;69097;52.132;5.422;2024-02-26T13:34:30;7.63;;;3.60;;
79616;SDS011;69097;52.132;5.422;2024-02-26T13:36:58;8.55;;;3.42;;
79616;SDS011;69097;52.132;5.422;2024-02-26T13:39:25;7.63;;;3.15;;
79616;SDS011;69097;52.132;5.422;2024-02-26T13:41:53;8.35;;;3.35;;
79616;SDS011;69097;52.132;5.422;2024-02-26T13:44:21;9.32;;;3.88;;
79616;SDS011;69097;52.132;5.422;2024-02-26T13:46:48;8.88;;;3.58;;
79616;SDS011;69097;52.132;5.422;2024-02-26T13:49:18;9.07;;;3.25;;
79616;SDS011;69097;52.132;5.422;2024-02-26T13:51:45;8.52;;;3.80;;
79616;SDS011;69097;52.132;5.422;2024-02-26T13:54:11;9.65;;;3.50;;
79616;SDS011;69097;52.132;5.422;2024-02-26T13:56:40;7.85;;;2.90;;
79616;SDS011;69097;52.132;5.422;2024-02-26T13:59:08;7.85;;;3.20;;
79616;SDS011;69097;52.132;5.422;2024-02-26T14:01:35;8.73;;;3.28;;
79616;SDS011;69097;52.132;5.422;2024-02-26T14:04:01;7.63;;;2.75;;
79616;SDS011;69097;52.132;5.422;2024-02-26T14:06:29;6.78;;;2.85;;
79616;SDS011;69097;52.132;5.422;2024-02-26T14:08:57;6.63;;;3.35;;
79616;SDS011;69097;52.132;5.422;2024-02-26T14:11:24;8.25;;;3.40;;
79616;SDS011;69097;52.132;5.422;2024-02-26T14:13:51;8.20;;;3.35;;
79616;SDS011;69097;52.132;5.422;2024-02-26T14:16:18;7.13;;;3.13;;
79616;SDS011;69097;52.132;5.422;2024-02-26T14:18:46;9.90;;;3.03;;
79616;SDS011;69097;52.132;5.422;2024-02-26T14:21:13;8.32;;;3.05;;
79616;SDS011;69097;52.132;5.422;2024-02-26T14:23:39;7.45;;;2.65;;
79616;SDS011;69097;52.132;5.422;2024-02-26T14:26:06;7.47;;;3.10;;
79616;SDS011;69097;52.132;5.422;2024-02-26T14:28:33;7.50;;;3.00;;
79616;SDS011;69097;52.132;5.422;2024-02-26T14:31:02;8.43;;;3.30;;
79616;SDS011;69097;52.132;5.422;2024-02-26T14:33:31;7.85;;;2.60;;
79616;SDS011;69097;52.132;5.422;2024-02-26T14:35:58;8.02;;;3.22;;
79616;SDS011;69097;52.132;5.422;2024-02-26T14:38:25;6.65;;;4.43;;
79616;SDS011;69097;52.132;5.422;2024-02-26T14:40:51;6.45;;;2.65;;
79616;SDS011;69097;52.132;5.422;2024-02-26T14:43:17;6.78;;;3.05;;
79616;SDS011;69097;52.132;5.422;2024-02-26T14:45:44;6.38;;;2.55;;
79616;SDS011;69097;52.132;5.422;2024-02-26T14:48:11;6.47;;;2.80;;
79616;SDS011;69097;52.132;5.422;2024-02-26T14:50:37;6.43;;;3.00;;
79616;SDS011;69097;52.132;5.422;2024-02-26T14:53:04;7.30;;;2.42;;
79616;SDS011;69097;52.132;5.422;2024-02-26T14:55:30;5.78;;;2.75;;
79616;SDS011;69097;52.132;5.422;2024-02-26T14:57:57;5.03;;;2.60;;
79616;SDS011;69097;52.132;5.422;2024-02-26T15:00:23;6.65;;;2.47;;
79616;SDS011;69097;52.132;5.422;2024-02-26T15:02:50;8.02;;;2.75;;